Harmony, West Virginia
Current Conditions -  °F | °C
As of 11:54 PM on Friday 28 Nov 2014 (Local Time) from KCRW Reporting Station
Scattered Clouds Scattered Clouds  
Wind Chill: 27°   Ceiling: Unl
Heat Index: 27°   Visibility: 9mi
Dew Point: 22°   Wind: 0mph
Humidity: 81%   Direction: NA
Pressure: 30.16"   Gusts: NA
Location:  38.6926°N, 81.4812°W
Report Text: KCRW 290454Z 00000KT 9SM SCT190 M03/M06 A3016 RMK AO2 SLP223 SCT V BKN T10281056 400001033
Loading
Personal Weather Stations






























Interactive Weather Map New forecast layout! Learn more

10-Day Weather Forecast

Advertisements
Track Severe Weather on mobile